Time;durP1;ratioP1;P1;durP2;ratioP2;P2;SDS_P1;SDS_P2;PMS_P1;PMS_P2;Temp;Humidity;BMP_temperature;BMP_pressure;BME280_temperature;BME280_humidity;BME280_pressure;Samples;Min_cycle;Max_cycle;Signal;HPM_P1;HPM_P2
2022/01/29 00:01:49;;;;;;;18.48;11.77;;;;;13.40;102648.00;;;;5039167;28;20251;-81
2022/01/29 00:04:16;;;;;;;18.83;12.68;;;;;13.50;102650.00;;;;5032964;28;20200;-81
2022/01/29 00:06:44;;;;;;;16.92;11.77;;;;;13.50;102650.00;;;;5040118;28;20204;-82
2022/01/29 00:09:14;;;;;;;19.48;13.00;;;;;13.40;102643.00;;;;5040363;28;20679;-81
2022/01/29 00:11:42;;;;;;;16.77;11.55;;;;;13.40;102646.00;;;;5031209;28;20262;-81
2022/01/29 00:14:09;;;;;;;21.98;13.48;;;;;13.40;102639.00;;;;5038682;28;20199;-81
2022/01/29 00:16:40;;;;;;;21.85;11.52;;;;;13.40;102640.00;;;;5051516;28;20210;-81
2022/01/29 00:19:07;;;;;;;18.58;11.60;;;;;13.40;102624.00;;;;5052220;28;20209;-81
2022/01/29 00:21:35;;;;;;;17.27;11.10;;;;;13.40;102635.00;;;;5047046;28;20223;-81
2022/01/29 00:24:02;;;;;;;16.58;10.90;;;;;13.40;102625.00;;;;5031878;28;20594;-81
2022/01/29 00:26:29;;;;;;;20.13;11.60;;;;;13.40;102620.00;;;;5049691;28;20195;-81
2022/01/29 00:28:58;;;;;;;19.42;11.68;;;;;13.40;102616.00;;;;5033650;28;20196;-81
2022/01/29 00:31:25;;;;;;;16.65;10.90;;;;;13.40;102603.00;;;;5031324;28;20262;-82
2022/01/29 00:33:55;;;;;;;19.25;11.20;;;;;13.40;102591.00;;;;5033527;28;20208;-81
2022/01/29 00:36:22;;;;;;;16.90;11.90;;;;;13.40;102588.00;;;;5049664;28;20200;-81
2022/01/29 00:38:49;;;;;;;21.88;10.70;;;;;13.40;102594.00;;;;5036113;28;20242;-81
2022/01/29 00:41:16;;;;;;;17.33;10.52;;;;;13.40;102582.00;;;;5046963;28;20215;-81
2022/01/29 00:43:44;;;;;;;16.88;10.88;;;;;13.40;102579.00;;;;5051712;28;20203;-82
2022/01/29 00:46:11;;;;;;;16.08;11.25;;;;;13.40;102568.00;;;;5050195;28;20195;-81
2022/01/29 00:48:38;;;;;;;16.70;10.05;;;;;13.40;102567.00;;;;5032629;28;20215;-82
2022/01/29 00:51:07;;;;;;;14.20;10.10;;;;;13.40;102571.00;;;;5049858;28;20199;-82
2022/01/29 00:53:34;;;;;;;14.57;9.25;;;;;13.40;102562.00;;;;5049898;28;20204;-81
2022/01/29 00:56:05;;;;;;;14.23;10.15;;;;;13.40;102561.00;;;;5041355;28;20208;-81
2022/01/29 00:58:33;;;;;;;16.55;10.15;;;;;13.40;102547.00;;;;5041667;28;20588;-82
2022/01/29 01:01:00;;;;;;;13.63;9.18;;;;;13.40;102546.00;;;;5033423;28;20517;-82
2022/01/29 01:03:27;;;;;;;12.95;8.63;;;;;13.40;102532.00;;;;5042043;28;20766;-81
2022/01/29 01:05:54;;;;;;;13.65;8.82;;;;;13.40;102543.00;;;;5037978;28;20195;-82
2022/01/29 01:08:23;;;;;;;12.65;9.07;;;;;13.40;102537.00;;;;5046556;28;20199;-82
2022/01/29 01:10:50;;;;;;;13.38;9.25;;;;;13.40;102538.00;;;;5031642;28;20685;-82
2022/01/29 01:13:17;;;;;;;12.05;8.38;;;;;13.40;102530.00;;;;5030838;28;20196;-81
2022/01/29 01:15:45;;;;;;;13.10;8.93;;;;;13.40;102523.00;;;;5045306;28;20206;-83
2022/01/29 01:18:12;;;;;;;11.77;8.65;;;;;13.40;102526.00;;;;5045634;28;20205;-82
2022/01/29 01:20:39;;;;;;;12.25;8.27;;;;;13.40;102516.00;;;;5037799;28;20203;-82
2022/01/29 01:23:06;;;;;;;12.50;7.72;;;;;13.40;102524.00;;;;5035761;28;20223;-82
2022/01/29 01:25:35;;;;;;;12.23;7.97;;;;;13.40;102509.00;;;;5040335;28;20196;-82
2022/01/29 01:28:02;;;;;;;10.60;7.43;;;;;13.40;102510.00;;;;5029286;28;20207;-82
2022/01/29 01:30:29;;;;;;;11.95;7.65;;;;;13.40;102499.00;;;;5030577;28;20196;-82
2022/01/29 01:32:56;;;;;;;13.55;8.43;;;;;13.50;102502.00;;;;5040766;28;20222;-81
2022/01/29 01:35:28;;;;;;;15.57;9.35;;;;;13.40;102502.00;;;;5050120;28;20206;-82
2022/01/29 01:37:59;;;;;;;12.57;8.48;;;;;13.40;102497.00;;;;5048424;28;20669;-81
2022/01/29 01:40:28;;;;;;;12.95;8.00;;;;;13.40;102505.00;;;;5030198;28;20219;-82
2022/01/29 01:43:00;;;;;;;13.18;9.45;;;;;13.40;102498.00;;;;5030164;28;20744;-81
2022/01/29 01:45:27;;;;;;;12.20;7.88;;;;;13.40;102502.00;;;;5039058;28;20203;-81
2022/01/29 01:47:54;;;;;;;15.63;9.10;;;;;13.40;102499.00;;;;5030572;28;20196;-81
2022/01/29 01:50:22;;;;;;;11.55;8.75;;;;;13.40;102501.00;;;;5030135;28;20231;-82
2022/01/29 01:52:50;;;;;;;10.88;8.30;;;;;13.40;102497.00;;;;5038813;28;20299;-82
2022/01/29 01:55:17;;;;;;;10.20;7.70;;;;;13.40;102488.00;;;;5029963;28;20200;-82
2022/01/29 01:57:45;;;;;;;12.32;8.65;;;;;13.40;102481.00;;;;5033759;28;20199;-82
2022/01/29 02:00:14;;;;;;;11.38;8.57;;;;;13.40;102487.00;;;;5030634;28;20200;-81
2022/01/29 02:02:42;;;;;;;10.65;7.70;;;;;13.40;102498.00;;;;5043407;28;20819;-81
2022/01/29 02:05:10;;;;;;;11.75;7.13;;;;;13.40;102485.00;;;;5041169;28;20192;-81
2022/01/29 02:07:38;;;;;;;11.80;8.02;;;;;13.40;102477.00;;;;5046930;28;20200;-82
2022/01/29 02:10:08;;;;;;;11.48;7.45;;;;;13.40;102482.00;;;;5034899;28;20199;-81
2022/01/29 02:12:49;;;;;;;9.95;6.95;;;;;13.40;102472.00;;;;5047760;28;20196;-81
2022/01/29 02:15:19;;;;;;;8.13;6.55;;;;;13.40;102466.00;;;;5039371;28;20195;-82
2022/01/29 02:17:46;;;;;;;12.70;6.97;;;;;13.40;102462.00;;;;5048668;28;20736;-82
2022/01/29 02:20:14;;;;;;;10.95;6.63;;;;;13.40;102463.00;;;;5033764;28;20200;-82
2022/01/29 02:22:44;;;;;;;8.73;5.70;;;;;13.40;102458.00;;;;5029622;28;20698;-82
2022/01/29 02:25:36;;;;;;;7.68;5.60;;;;;13.40;102450.00;;;;5029262;28;20189;-82
2022/01/29 02:28:06;;;;;;;8.32;5.68;;;;;13.40;102445.00;;;;5029164;28;20555;-82
2022/01/29 02:30:35;;;;;;;7.45;5.30;;;;;13.50;102442.00;;;;5045223;28;20218;-82
2022/01/29 02:33:05;;;;;;;7.43;5.53;;;;;13.50;102439.00;;;;5048023;28;20669;-82
2022/01/29 02:35:32;;;;;;;7.30;6.13;;;;;13.40;102433.00;;;;5030668;28;20212;-82
2022/01/29 02:38:01;;;;;;;7.88;5.43;;;;;13.40;102423.00;;;;5034266;28;20192;-82
2022/01/29 02:40:34;;;;;;;5.85;4.50;;;;;13.50;102429.00;;;;5037040;28;20235;-82
2022/01/29 02:43:11;;;;;;;6.82;4.95;;;;;13.40;102418.00;;;;5037457;28;20353;-82
2022/01/29 02:45:38;;;;;;;8.75;5.28;;;;;13.50;102403.00;;;;5047766;28;20213;-81
2022/01/29 02:48:06;;;;;;;6.28;4.35;;;;;13.50;102409.00;;;;5048082;28;20187;-82
2022/01/29 02:50:33;;;;;;;6.70;4.72;;;;;13.50;102395.00;;;;5048210;28;20199;-82
2022/01/29 02:53:01;;;;;;;6.85;4.90;;;;;13.50;102400.00;;;;5044797;28;20615;-81
2022/01/29 02:55:29;;;;;;;5.75;4.65;;;;;13.50;102389.00;;;;5047304;28;20202;-82
2022/01/29 02:57:57;;;;;;;5.15;4.35;;;;;13.50;102375.00;;;;5038831;28;20218;-82
2022/01/29 03:00:25;;;;;;;6.07;4.78;;;;;13.50;102377.00;;;;5047880;28;20685;-82
2022/01/29 03:02:52;;;;;;;7.57;5.10;;;;;13.60;102381.00;;;;5036425;28;20723;-82
2022/01/29 03:05:20;;;;;;;6.68;4.88;;;;;13.60;102371.00;;;;5035303;28;20204;-82
2022/01/29 03:07:48;;;;;;;8.20;5.13;;;;;13.60;102370.00;;;;5036436;28;20253;-82
2022/01/29 03:10:17;;;;;;;5.45;4.53;;;;;13.60;102373.00;;;;5028265;28;20203;-82
2022/01/29 03:12:44;;;;;;;5.93;4.88;;;;;13.60;102371.00;;;;5034114;28;20196;-82
2022/01/29 03:15:13;;;;;;;7.82;5.35;;;;;13.60;102373.00;;;;5041599;28;20204;-82
2022/01/29 03:17:42;;;;;;;6.53;4.38;;;;;13.60;102367.00;;;;5028428;28;20291;-82
2022/01/29 03:20:11;;;;;;;7.03;5.00;;;;;13.60;102360.00;;;;5032247;28;20196;-82
2022/01/29 03:22:39;;;;;;;6.10;4.70;;;;;13.60;102356.00;;;;5028461;28;20256;-83
2022/01/29 03:25:07;;;;;;;5.53;4.07;;;;;13.70;102352.00;;;;5029828;28;20211;-83
2022/01/29 03:27:36;;;;;;;5.63;4.20;;;;;13.70;102359.00;;;;5047545;28;20209;-83
2022/01/29 03:30:04;;;;;;;6.88;4.50;;;;;13.70;102359.00;;;;5033053;28;20675;-83
2022/01/29 03:32:31;;;;;;;6.25;4.40;;;;;13.70;102349.00;;;;5044073;28;20199;-82
2022/01/29 03:34:58;;;;;;;8.10;5.22;;;;;13.70;102352.00;;;;5043429;28;20227;-83
2022/01/29 03:37:26;;;;;;;6.80;4.70;;;;;13.80;102348.00;;;;5035687;28;20196;-83
2022/01/29 03:39:58;;;;;;;8.43;5.32;;;;;13.80;102346.00;;;;5028835;28;20192;-82
2022/01/29 03:42:26;;;;;;;8.80;4.75;;;;;13.80;102352.00;;;;5027985;28;20220;-82
2022/01/29 03:44:55;;;;;;;9.27;4.97;;;;;13.80;102355.00;;;;5042245;28;20192;-83
2022/01/29 03:47:22;;;;;;;7.03;4.45;;;;;13.80;102342.00;;;;5037042;28;20628;-82
2022/01/29 03:49:52;;;;;;;9.13;5.00;;;;;13.80;102348.00;;;;5031878;28;20191;-83
2022/01/29 03:52:19;;;;;;;8.57;5.53;;;;;13.80;102337.00;;;;5039772;28;20199;-82
2022/01/29 03:54:46;;;;;;;11.75;5.70;;;;;13.90;102334.00;;;;5046614;28;20254;-83
2022/01/29 03:57:14;;;;;;;10.70;5.22;;;;;13.90;102334.00;;;;5051451;28;20195;-83
2022/01/29 03:59:41;;;;;;;6.55;4.72;;;;;13.90;102349.00;;;;5037560;28;20657;-83
2022/01/29 04:02:10;;;;;;;9.43;5.72;;;;;13.90;102342.00;;;;5051386;28;20234;-82
2022/01/29 04:04:37;;;;;;;9.60;4.53;;;;;13.90;102347.00;;;;5045424;28;20231;-82
2022/01/29 04:07:10;;;;;;;12.00;4.78;;;;;13.90;102335.00;;;;5039538;28;20204;-83
2022/01/29 04:09:37;;;;;;;6.90;4.28;;;;;13.90;102336.00;;;;5033258;28;20271;-82
2022/01/29 04:12:05;;;;;;;9.65;5.03;;;;;14.00;102343.00;;;;5041539;28;20196;-82
2022/01/29 04:14:38;;;;;;;7.80;4.35;;;;;14.00;102339.00;;;;5037422;28;20247;-82
2022/01/29 04:17:05;;;;;;;8.73;4.78;;;;;14.00;102336.00;;;;5035799;28;20250;-82
2022/01/29 04:19:35;;;;;;;11.23;5.18;;;;;14.00;102334.00;;;;5033811;28;20655;-82
2022/01/29 04:22:03;;;;;;;7.65;5.13;;;;;14.10;102323.00;;;;5037379;28;20640;-82
2022/01/29 04:24:30;;;;;;;6.82;4.90;;;;;14.10;102323.00;;;;5046866;28;20224;-82
2022/01/29 04:26:58;;;;;;;6.25;4.68;;;;;14.10;102320.00;;;;5046408;28;20207;-82
2022/01/29 04:29:28;;;;;;;7.40;5.13;;;;;14.10;102326.00;;;;5036824;28;20199;-83
2022/01/29 04:32:10;;;;;;;11.55;5.50;;;;;14.10;102317.00;;;;5049097;28;20223;-83
2022/01/29 04:34:38;;;;;;;9.00;5.85;;;;;14.10;102305.00;;;;5038745;28;20200;-83
2022/01/29 04:37:06;;;;;;;8.32;5.63;;;;;14.10;102312.00;;;;5031724;28;20204;-83
2022/01/29 04:39:33;;;;;;;8.40;5.70;;;;;14.10;102300.00;;;;5045366;28;20751;-83
2022/01/29 04:42:01;;;;;;;8.93;5.50;;;;;14.10;102292.00;;;;5048822;28;20695;-83
2022/01/29 04:44:28;;;;;;;12.35;6.88;;;;;14.10;102293.00;;;;5047498;28;20192;-84
2022/01/29 04:46:55;;;;;;;10.10;7.18;;;;;14.10;102284.00;;;;5045938;28;20200;-83
2022/01/29 04:49:22;;;;;;;10.38;7.07;;;;;14.10;102294.00;;;;5048888;28;20195;-83
2022/01/29 04:51:51;;;;;;;10.75;6.25;;;;;14.10;102291.00;;;;5050147;28;20206;-84
2022/01/29 04:54:18;;;;;;;12.02;7.82;;;;;14.20;102287.00;;;;5034488;28;20827;-83
2022/01/29 04:56:45;;;;;;;11.38;6.88;;;;;14.10;102277.00;;;;5040573;28;20195;-83
2022/01/29 04:59:12;;;;;;;9.45;7.00;;;;;14.10;102285.00;;;;5041044;28;20191;-83
2022/01/29 05:01:40;;;;;;;12.25;7.38;;;;;14.10;102282.00;;;;5042015;28;20282;-83
2022/01/29 05:04:07;;;;;;;8.60;6.47;;;;;14.10;102275.00;;;;5033965;28;20220;-82
2022/01/29 05:06:34;;;;;;;7.72;6.18;;;;;14.10;102283.00;;;;5040911;28;20196;-82
2022/01/29 05:09:04;;;;;;;11.68;7.57;;;;;14.10;102275.00;;;;5049018;28;20661;-83
2022/01/29 05:11:32;;;;;;;9.55;6.93;;;;;14.10;102278.00;;;;5050461;28;20199;-83
2022/01/29 05:14:00;;;;;;;8.88;6.85;;;;;14.10;102268.00;;;;5047998;28;20202;-83
2022/01/29 05:16:56;;;;;;;9.13;6.70;;;;;14.10;102277.00;;;;5033100;28;20620;-83
2022/01/29 05:27:43;;;;;;;8.10;5.63;;;;;14.10;102271.00;;;;5025824;28;20249;-83
2022/01/29 05:30:11;;;;;;;8.07;6.47;;;;;14.10;102277.00;;;;5041162;28;20215;-82
2022/01/29 05:32:38;;;;;;;8.05;6.45;;;;;14.10;102263.00;;;;5030312;28;20243;-82
2022/01/29 05:35:06;;;;;;;8.63;6.78;;;;;14.10;102272.00;;;;5029959;28;20559;-82
2022/01/29 05:37:34;;;;;;;7.18;5.55;;;;;14.20;102268.00;;;;5029682;28;20200;-82
2022/01/29 05:40:02;;;;;;;10.70;6.72;;;;;14.20;102271.00;;;;5029708;28;20243;-82
2022/01/29 05:42:29;;;;;;;7.05;5.65;;;;;14.20;102266.00;;;;5040600;28;20226;-82
2022/01/29 05:44:57;;;;;;;6.72;5.63;;;;;14.20;102258.00;;;;5030119;28;20192;-82
2022/01/29 05:47:25;;;;;;;8.18;6.47;;;;;14.20;102250.00;;;;5037004;28;20712;-81
2022/01/29 05:49:52;;;;;;;7.20;5.72;;;;;14.20;102253.00;;;;5049390;28;20191;-81
2022/01/29 05:52:19;;;;;;;6.80;4.95;;;;;14.30;102251.00;;;;5050549;28;20207;-82
2022/01/29 05:54:47;;;;;;;7.30;6.15;;;;;14.30;102245.00;;;;5033930;28;20195;-81
2022/01/29 05:57:15;;;;;;;8.65;5.40;;;;;14.30;102244.00;;;;5035326;28;20223;-82
2022/01/29 05:59:42;;;;;;;7.53;4.60;;;;;14.30;102245.00;;;;5045125;28;20199;-82
2022/01/29 06:02:10;;;;;;;8.85;4.97;;;;;14.30;102242.00;;;;5044731;28;20226;-82
2022/01/29 06:04:37;;;;;;;10.43;5.18;;;;;14.40;102243.00;;;;5038533;28;20277;-81
2022/01/29 06:07:05;;;;;;;6.07;4.32;;;;;14.40;102241.00;;;;5036752;28;20207;-82
2022/01/29 06:09:33;;;;;;;8.40;4.65;;;;;14.40;102225.00;;;;5037881;28;20208;-83
2022/01/29 06:12:00;;;;;;;6.57;3.95;;;;;14.40;102221.00;;;;5042713;28;20203;-83
2022/01/29 06:14:29;;;;;;;6.15;4.10;;;;;14.40;102226.00;;;;5046060;28;20192;-83
2022/01/29 06:16:56;;;;;;;7.28;4.28;;;;;14.40;102220.00;;;;5049075;28;20204;-83
2022/01/29 06:19:23;;;;;;;5.40;3.45;;;;;14.50;102221.00;;;;5033329;28;20685;-83
2022/01/29 06:21:51;;;;;;;7.07;3.83;;;;;14.50;102224.00;;;;5040400;28;20192;-83
2022/01/29 06:24:18;;;;;;;5.65;3.75;;;;;14.50;102228.00;;;;5032774;28;20219;-83
2022/01/29 06:26:45;;;;;;;7.10;4.38;;;;;14.50;102229.00;;;;5042363;28;20195;-83
2022/01/29 06:29:13;;;;;;;5.18;3.47;;;;;14.50;102224.00;;;;5041661;28;20211;-83
2022/01/29 06:31:42;;;;;;;6.10;3.95;;;;;14.50;102217.00;;;;5029242;28;20196;-84
2022/01/29 06:34:09;;;;;;;5.18;4.68;;;;;14.50;102216.00;;;;5029764;28;20239;-81
2022/01/29 06:36:36;;;;;;;9.98;5.38;;;;;14.50;102217.00;;;;5030136;28;20666;-83
2022/01/29 06:39:05;;;;;;;6.13;3.80;;;;;14.50;102222.00;;;;5045291;28;20725;-84
2022/01/29 06:41:32;;;;;;;8.05;4.07;;;;;14.60;102214.00;;;;5048935;28;20196;-83
2022/01/29 06:44:01;;;;;;;5.90;3.65;;;;;14.60;102206.00;;;;5029754;28;20528;-83
2022/01/29 06:46:28;;;;;;;6.38;4.28;;;;;14.60;102216.00;;;;5028757;28;20200;-83
2022/01/29 06:48:57;;;;;;;6.50;4.30;;;;;14.60;102208.00;;;;5035351;28;20195;-82
2022/01/29 06:51:24;;;;;;;5.20;3.80;;;;;14.60;102193.00;;;;5047181;28;20218;-82
2022/01/29 06:53:52;;;;;;;6.72;3.85;;;;;14.60;102192.00;;;;5036723;28;20204;-83
2022/01/29 06:56:19;;;;;;;6.03;3.90;;;;;14.60;102197.00;;;;5047614;28;20744;-84
2022/01/29 06:58:46;;;;;;;6.53;3.85;;;;;14.60;102195.00;;;;5042880;28;20196;-83
2022/01/29 07:01:14;;;;;;;5.90;3.58;;;;;14.60;102193.00;;;;5031652;28;20248;-83
2022/01/29 07:03:41;;;;;;;4.35;3.15;;;;;14.70;102191.00;;;;5029098;28;20714;-83
2022/01/29 07:06:09;;;;;;;5.47;4.00;;;;;14.70;102200.00;;;;5033503;28;20255;-83
2022/01/29 07:08:38;;;;;;;6.65;3.95;;;;;14.70;102204.00;;;;5030428;28;20702;-83
2022/01/29 07:11:06;;;;;;;4.80;3.75;;;;;14.70;102206.00;;;;5037543;28;20653;-83
2022/01/29 07:13:35;;;;;;;4.40;3.35;;;;;14.70;102211.00;;;;5042666;28;20206;-83
2022/01/29 07:16:02;;;;;;;7.85;4.53;;;;;14.70;102202.00;;;;5038231;28;20207;-82
2022/01/29 07:18:29;;;;;;;8.15;4.18;;;;;14.70;102204.00;;;;5037892;28;20235;-82
2022/01/29 07:20:57;;;;;;;3.85;3.22;;;;;14.70;102206.00;;;;5038875;28;20676;-83
2022/01/29 07:23:26;;;;;;;4.55;3.83;;;;;14.70;102203.00;;;;5035365;28;20221;-83
2022/01/29 07:25:53;;;;;;;5.07;3.08;;;;;14.70;102201.00;;;;5028532;28;20200;-83
2022/01/29 07:28:20;;;;;;;5.32;3.53;;;;;14.80;102190.00;;;;5044724;28;20207;-83
2022/01/29 07:30:47;;;;;;;6.43;4.30;;;;;14.80;102191.00;;;;5033640;28;20236;-83
2022/01/29 07:33:15;;;;;;;5.13;3.17;;;;;14.80;102182.00;;;;5046188;28;20677;-83
2022/01/29 07:35:45;;;;;;;8.63;3.67;;;;;14.80;102174.00;;;;5037322;28;20228;-84
2022/01/29 07:38:14;;;;;;;9.57;3.28;;;;;14.80;102176.00;;;;5037167;28;20202;-83
2022/01/29 07:40:42;;;;;;;8.25;2.95;;;;;14.80;102172.00;;;;5038112;28;20231;-84
2022/01/29 07:43:09;;;;;;;4.70;3.33;;;;;14.80;102170.00;;;;5048698;28;20199;-83
2022/01/29 07:45:37;;;;;;;6.32;3.03;;;;;14.80;102166.00;;;;5037973;28;20620;-83
2022/01/29 07:48:04;;;;;;;5.47;3.85;;;;;14.80;102170.00;;;;5028818;28;20199;-82
2022/01/29 07:50:32;;;;;;;5.63;3.47;;;;;14.80;102176.00;;;;5038458;28;20203;-82
2022/01/29 07:52:59;;;;;;;3.90;2.78;;;;;14.90;102167.00;;;;5036011;28;20615;-82
2022/01/29 07:55:27;;;;;;;4.20;3.22;;;;;14.90;102167.00;;;;5047821;28;20203;-82
2022/01/29 07:57:55;;;;;;;5.38;2.83;;;;;14.90;102160.00;;;;5048712;28;20203;-83
2022/01/29 08:00:23;;;;;;;4.95;3.55;;;;;14.90;102158.00;;;;5043306;28;20200;-83
2022/01/29 08:02:50;;;;;;;4.95;2.95;;;;;14.90;102152.00;;;;5028366;28;20232;-83
2022/01/29 08:05:18;;;;;;;4.40;2.63;;;;;14.90;102152.00;;;;5029140;28;20231;-82
2022/01/29 08:07:48;;;;;;;8.13;3.00;;;;;14.90;102151.00;;;;5047178;28;20498;-83
2022/01/29 08:10:15;;;;;;;5.10;3.00;;;;;14.90;102152.00;;;;5029040;28;20266;-83
2022/01/29 08:12:42;;;;;;;4.50;3.22;;;;;14.90;102149.00;;;;5027777;28;20211;-83
2022/01/29 08:15:11;;;;;;;4.15;2.83;;;;;15.00;102150.00;;;;5040917;28;20211;-82
2022/01/29 08:17:39;;;;;;;6.57;3.47;;;;;15.00;102144.00;;;;5027934;28;20204;-82
2022/01/29 08:20:07;;;;;;;5.47;3.08;;;;;15.00;102144.00;;;;5029306;28;20208;-83
2022/01/29 08:22:34;;;;;;;7.43;3.42;;;;;15.00;102145.00;;;;5028167;28;20561;-83
2022/01/29 08:25:02;;;;;;;7.75;2.80;;;;;15.00;102146.00;;;;5031163;28;20227;-83
2022/01/29 08:27:29;;;;;;;7.47;2.83;;;;;15.00;102137.00;;;;5047319;28;20257;-83
2022/01/29 08:29:56;;;;;;;7.60;3.88;;;;;15.00;102138.00;;;;5032913;28;20189;-83
2022/01/29 08:32:25;;;;;;;6.75;3.65;;;;;15.10;102136.00;;;;5031633;28;20701;-83
2022/01/29 08:34:52;;;;;;;3.75;2.75;;;;;15.10;102134.00;;;;5050488;28;20203;-83
2022/01/29 08:37:19;;;;;;;4.60;2.70;;;;;15.10;102114.00;;;;5048929;28;20693;-83
2022/01/29 08:39:47;;;;;;;4.60;2.83;;;;;15.10;102135.00;;;;5036524;28;20271;-83
2022/01/29 08:42:14;;;;;;;4.25;2.80;;;;;15.10;102121.00;;;;5044354;28;20203;-84
2022/01/29 08:44:42;;;;;;;5.72;2.42;;;;;15.20;102119.00;;;;5044693;28;20216;-83
2022/01/29 08:47:09;;;;;;;7.80;3.22;;;;;15.20;102125.00;;;;5030909;28;20192;-83
2022/01/29 08:49:40;;;;;;;3.85;3.00;;;;;15.10;102121.00;;;;5040881;28;20200;-83
2022/01/29 08:52:08;;;;;;;5.05;3.10;;;;;15.20;102116.00;;;;5040907;28;20204;-83
2022/01/29 08:54:35;;;;;;;4.50;2.70;;;;;15.20;102120.00;;;;5044464;28;20202;-82
2022/01/29 08:57:03;;;;;;;9.10;2.58;;;;;15.20;102114.00;;;;5039668;28;20250;-82
2022/01/29 08:59:30;;;;;;;5.97;2.63;;;;;15.20;102108.00;;;;5042458;28;20200;-83
2022/01/29 09:01:57;;;;;;;4.65;2.70;;;;;15.30;102102.00;;;;5034558;28;20227;-80
2022/01/29 09:04:24;;;;;;;7.72;2.65;;;;;15.30;102108.00;;;;5031541;28;20220;-81
2022/01/29 09:06:53;;;;;;;5.53;2.47;;;;;15.30;102099.00;;;;5032094;28;20250;-82
2022/01/29 09:09:25;;;;;;;6.55;3.20;;;;;15.30;102104.00;;;;5031685;28;20196;-81
2022/01/29 09:11:52;;;;;;;5.70;2.20;;;;;15.40;102102.00;;;;5037209;28;20303;-81
2022/01/29 09:14:20;;;;;;;3.13;2.30;;;;;15.40;102101.00;;;;5038778;28;20203;-81
2022/01/29 09:16:48;;;;;;;3.67;2.60;;;;;15.40;102100.00;;;;5030810;28;20208;-83
2022/01/29 09:19:15;;;;;;;3.85;2.03;;;;;15.40;102094.00;;;;5038267;28;20204;-83
2022/01/29 09:21:42;;;;;;;5.40;2.38;;;;;15.40;102077.00;;;;5045432;28;20192;-80
2022/01/29 09:24:12;;;;;;;5.53;2.55;;;;;15.40;102072.00;;;;5032292;28;20236;-79
2022/01/29 09:26:40;;;;;;;4.68;2.35;;;;;15.50;102077.00;;;;5031217;28;20595;-80
2022/01/29 09:29:07;;;;;;;5.00;2.17;;;;;15.50;102084.00;;;;5032335;28;20207;-80
2022/01/29 09:31:35;;;;;;;6.07;2.28;;;;;15.50;102079.00;;;;5036848;28;20203;-80
2022/01/29 09:34:03;;;;;;;3.33;1.77;;;;;15.50;102075.00;;;;5043658;28;20211;-80
2022/01/29 09:36:30;;;;;;;5.53;2.03;;;;;15.50;102075.00;;;;5034396;28;20202;-80
2022/01/29 09:38:57;;;;;;;4.05;2.08;;;;;15.50;102084.00;;;;5038008;28;20200;-80
2022/01/29 09:41:28;;;;;;;3.83;1.63;;;;;15.50;102083.00;;;;5037422;28;20279;-81
2022/01/29 09:43:56;;;;;;;3.33;1.55;;;;;15.50;102085.00;;;;5050466;28;20832;-80
2022/01/29 09:46:27;;;;;;;3.40;1.52;;;;;15.60;102081.00;;;;5030069;28;20204;-79
2022/01/29 09:48:55;;;;;;;4.18;1.90;;;;;15.60;102081.00;;;;5035512;28;20865;-83
2022/01/29 09:51:22;;;;;;;3.10;1.33;;;;;15.60;102076.00;;;;5043097;28;20283;-82
2022/01/29 09:53:50;;;;;;;3.97;1.65;;;;;15.60;102086.00;;;;5042938;28;20191;-83
2022/01/29 09:56:17;;;;;;;3.10;1.50;;;;;15.60;102072.00;;;;5030791;28;20204;-85
2022/01/29 09:58:46;;;;;;;5.50;1.85;;;;;15.60;102070.00;;;;5042917;28;20207;-84
2022/01/29 10:01:14;;;;;;;3.50;1.50;;;;;15.60;102060.00;;;;5034515;28;20749;-83
2022/01/29 10:03:42;;;;;;;2.75;1.45;;;;;15.70;102067.00;;;;5028808;28;20200;-83
2022/01/29 10:06:16;;;;;;;3.97;1.52;;;;;15.70;102061.00;;;;5029343;28;20196;-85
2022/01/29 10:08:46;;;;;;;4.30;2.15;;;;;15.80;102052.00;;;;5032914;28;20569;-83
2022/01/29 10:11:21;;;;;;;2.22;1.52;;;;;15.70;102044.00;;;;5029888;28;20292;-82
2022/01/29 10:13:50;;;;;;;4.90;1.65;;;;;15.80;102040.00;;;;5029362;28;20298;-82
2022/01/29 10:16:19;;;;;;;3.40;1.48;;;;;15.80;102037.00;;;;5029280;28;20204;-84
2022/01/29 10:18:57;;;;;;;3.28;1.48;;;;;15.90;102043.00;;;;5035051;28;20226;-83
2022/01/29 10:21:25;;;;;;;4.05;1.70;;;;;15.90;102034.00;;;;5043431;28;20199;-81
2022/01/29 10:24:03;;;;;;;5.00;1.77;;;;;15.90;102035.00;;;;5049627;28;20218;-81
2022/01/29 10:26:33;;;;;;;4.07;1.50;;;;;16.00;102048.00;;;;5047055;28;20223;-82
2022/01/29 10:29:03;;;;;;;3.45;1.27;;;;;16.00;102049.00;;;;5038687;28;20238;-82
2022/01/29 10:31:41;;;;;;;3.85;1.58;;;;;16.00;102032.00;;;;5029497;28;20663;-82
2022/01/29 10:34:23;;;;;;;2.03;0.85;;;;;16.10;102036.00;;;;5038109;28;20204;-82
2022/01/29 10:37:15;;;;;;;4.25;1.15;;;;;16.20;102040.00;;;;5043130;28;20203;-82
2022/01/29 10:39:44;;;;;;;3.80;1.08;;;;;16.30;102037.00;;;;5032577;28;20200;-81
2022/01/29 10:42:16;;;;;;;3.80;1.65;;;;;16.30;102039.00;;;;5030701;28;20749;-81
2022/01/29 10:44:46;;;;;;;3.28;1.50;;;;;16.30;102035.00;;;;5036100;28;20753;-81
2022/01/29 10:47:14;;;;;;;4.50;1.60;;;;;16.40;102031.00;;;;5036822;28;20188;-81
2022/01/29 10:49:51;;;;;;;5.10;1.25;;;;;16.30;102027.00;;;;5041990;28;20211;-82
2022/01/29 10:52:25;;;;;;;4.00;1.10;;;;;16.40;102033.00;;;;5032371;28;20207;-79
2022/01/29 10:54:59;;;;;;;4.07;1.30;;;;;16.40;102013.00;;;;5035328;28;20208;-78
2022/01/29 10:57:33;;;;;;;2.80;1.27;;;;;16.40;102019.00;;;;5028323;28;20208;-80
2022/01/29 11:00:05;;;;;;;3.35;1.17;;;;;16.50;102011.00;;;;5028005;28;20307;-80
2022/01/29 11:02:32;;;;;;;4.10;1.25;;;;;16.50;102005.00;;;;5028363;28;20690;-81
2022/01/29 11:05:01;;;;;;;1.73;0.73;;;;;16.60;102003.00;;;;5031126;28;20216;-81
2022/01/29 11:07:30;;;;;;;3.65;1.08;;;;;16.60;102003.00;;;;5030863;28;20573;-81
2022/01/29 11:10:01;;;;;;;4.78;0.95;;;;;16.70;102009.00;;;;5028332;28;20203;-80
2022/01/29 11:12:30;;;;;;;1.80;0.90;;;;;16.70;101996.00;;;;5031091;28;20208;-79
2022/01/29 11:14:59;;;;;;;4.07;1.13;;;;;16.80;102003.00;;;;5028426;28;20208;-80
2022/01/29 11:17:30;;;;;;;2.88;0.98;;;;;16.80;101986.00;;;;5028243;28;20200;-80
2022/01/29 11:19:57;;;;;;;4.32;1.13;;;;;16.80;101997.00;;;;5032003;28;20287;-80
2022/01/29 11:22:28;;;;;;;2.03;0.95;;;;;16.80;101998.00;;;;5037057;28;20230;-80
2022/01/29 11:25:00;;;;;;;2.25;0.93;;;;;16.80;101970.00;;;;5034384;28;20666;-80
2022/01/29 11:27:29;;;;;;;1.85;0.63;;;;;16.80;101970.00;;;;5038475;28;20195;-82
2022/01/29 11:30:02;;;;;;;5.60;0.90;;;;;16.80;101961.00;;;;5038628;28;20196;-80
2022/01/29 11:32:35;;;;;;;1.80;0.95;;;;;16.80;101958.00;;;;5033251;28;20210;-80
2022/01/29 11:35:19;;;;;;;4.75;0.80;;;;;16.80;101979.00;;;;5034756;28;20197;-81
2022/01/29 11:37:53;;;;;;;1.80;0.63;;;;;16.80;101981.00;;;;5029413;28;20299;-81
2022/01/29 11:40:24;;;;;;;3.90;0.90;;;;;16.90;101977.00;;;;5043202;28;20623;-80
2022/01/29 11:43:20;;;;;;;2.00;0.63;;;;;16.80;101967.00;;;;5034024;28;20615;-82
2022/01/29 11:45:50;;;;;;;1.80;0.75;;;;;16.90;101969.00;;;;5035656;28;20223;-80
2022/01/29 11:48:54;;;;;;;3.05;1.45;;;;;16.80;101963.00;;;;5034065;28;20619;-79
2022/01/29 11:51:44;;;;;;;2.60;0.90;;;;;16.80;101948.00;;;;5012577;28;20257;-82
2022/01/29 11:54:16;;;;;;;2.45;1.20;;;;;16.80;101956.00;;;;5035487;28;20225;-80
2022/01/29 11:56:44;;;;;;;4.50;0.90;;;;;16.90;101947.00;;;;5043133;28;20203;-82
2022/01/29 11:59:31;;;;;;;3.10;1.23;;;;;16.80;101944.00;;;;5032072;28;20192;-82
2022/01/29 12:02:01;;;;;;;3.38;1.40;;;;;16.90;101959.00;;;;5034155;28;20224;-81
2022/01/29 12:05:07;;;;;;;4.22;1.38;;;;;16.80;101945.00;;;;5027728;28;20196;-82
2022/01/29 12:07:39;;;;;;;4.05;1.48;;;;;16.90;101946.00;;;;5019919;28;20291;-81
2022/01/29 12:10:10;;;;;;;1.25;0.95;;;;;16.90;101935.00;;;;5040214;28;20262;-84
2022/01/29 12:12:39;;;;;;;3.58;1.17;;;;;17.00;101925.00;;;;5032998;28;20205;-83
2022/01/29 12:15:38;;;;;;;2.20;0.98;;;;;16.90;101934.00;;;;5041608;28;20245;-84
2022/01/29 12:18:20;;;;;;;3.70;1.23;;;;;17.00;101925.00;;;;5033528;28;20200;-83
2022/01/29 12:20:50;;;;;;;5.68;1.02;;;;;17.00;101916.00;;;;5036660;28;20204;-86
2022/01/29 12:23:17;;;;;;;3.17;1.75;;;;;17.00;101919.00;;;;5042305;28;20804;-82
2022/01/29 12:25:54;;;;;;;3.22;1.20;;;;;17.00;101897.00;;;;5040858;28;20220;-82